• Join FlightAware (Why Join?)
  • Login
  • US Flag 
06:30AM EDT


 

Airport Tracker/Info


-or-


 

Live Flight TrackerFlight Track Log ✈ N825TB ✈ 11-Nov-2013 ✈ KTMB - KSFO

Flight Track Log - Related Links

Times and Time Zones

All times are in EST time to prevent confusion due to time zone crossing. See the N825TB flight status page for this flight to view local times or setup timezone preferences in your user account.

Time Position Orientation Groundspeed Altitude Reporting Facility
EST Latitude Longitude Course Direction KTS MPH feet Rate Location/Type
08:38AM 25.6425 -80.4106 96° East 185 213 800  Level Miami Center
08:39AM 25.6392 -80.3761 96° East 181 208 1,900 960 Climbing Miami Center
08:40AM 25.6278 -80.3228 103° East 209 241 2,400 1,320 Climbing Miami Center
08:41AM 25.5672 -80.3278 184° South 240 276 4,600 2,220 Climbing Miami Center
08:42AM 25.5592 -80.4036 263° West 239 275 7,000 2,520 Climbing Miami Center
08:43AM 25.6231 -80.4356 336° Northwest 260 299 9,800 2,700 Climbing Miami Center
08:43AM 25.6253 -80.4331 45° Northeast 257 296 9,900 2,640 Climbing Miami Center
08:44AM 25.6956 -80.4583 342° North 292 336 12,500 2,460 Climbing Miami Center
08:44AM 25.6914 -80.4558 152° Southeast 300 345 12,400 1,920 Descending Miami Center
08:45AM 25.7828 -80.4794 347° North 337 388 14,500 1,560 Climbing Miami Center
08:46AM 25.8761 -80.5053 346° North 342 394 15,600 720 Climbing Miami Center
08:47AM 25.9714 -80.5383 343° North 347 399 16,000 960 Climbing Miami Center
08:48AM 26.0514 -80.6008 325° Northwest 347 399 17,600 1,740 Climbing Miami Center
08:49AM 26.1267 -80.6772 318° Northwest 352 405 19,500 1,980 Climbing Miami Center
08:50AM 26.2081 -80.7583 318° Northwest 373 429 21,600 2,160 Climbing Miami Center
08:51AM 26.2831 -80.8397 316° Northwest 385 443 23,900 2,280 Climbing Miami Center
08:52AM 26.3703 -80.9283 318° Northwest 385 443 26,200 2,040 Climbing Miami Center
08:53AM 26.4436 -81.0006 319° Northwest 385 443 28,000 1,620 Climbing Miami Center
08:54AM 26.5267 -81.0869 317° Northwest 394 453 29,500 1,440 Climbing Miami Center
08:55AM 26.6119 -81.1736 318° Northwest 406 467 30,900 1,500 Climbing Miami Center
08:56AM 26.7069 -81.2700 318° Northwest 412 474 32,500 1,500 Climbing Miami Center
08:57AM 26.7922 -81.3572 318° Northwest 417 480 33,900 1,260 Climbing Miami Center
08:58AM 26.8769 -81.4511 315° West 417 480 35,100 1,080 Climbing Miami Center
08:59AM 26.9450 -81.5378 311° West 411 473 36,100 1,200 Climbing Miami Center
09:00AM 26.9972 -81.6633 295° West 411 473 37,500 1,500 Climbing Miami Center
09:01AM 27.0394 -81.7792 292° West 404 465 39,200 1,260 Climbing Miami Center
09:02AM 27.0814 -81.8883 293° West 388 447 40,100 720 Climbing Miami Center
09:03AM 27.1236 -81.9950 294° West 381 438 40,700 600 Climbing Miami Center
09:04AM 27.1619 -82.0925 294° West 376 433 41,300 600 Climbing Miami Center
09:05AM 27.2056 -82.2133 292° West 382 440 42,000 540 Climbing Miami Center
09:06AM 27.2456 -82.3133 294° West 382 440 42,400 480 Climbing Miami Center
09:07AM 27.2872 -82.4275 292° West 376 433 43,000 300 Climbing Miami Center
09:08AM 27.3250 -82.5250 294° West 376 433 43,000  Level Miami Center
09:09AM 27.3625 -82.6319 292° West 381 438 43,000  Level Miami Center
09:10AM 27.4058 -82.7486 293° West 376 433 43,000  Level Miami Center
09:11AM 27.4494 -82.8561 295° West 376 433 43,000  Level Miami Center
09:12AM 27.4828 -82.9539 291° West 376 433 43,000  Level Miami Center
09:13AM 27.5222 -83.0611 293° West 376 433 43,000  Level Miami Center
09:14AM 27.5633 -83.1689 293° West 376 433 43,000  Level Miami Center
09:15AM 27.5983 -83.2761 290° West 376 433 43,000  Level Miami Center
09:16AM 27.6372 -83.3814 293° West 376 433 43,000  Level Miami Center
09:17AM 27.6803 -83.4939 293° West 381 438 43,000  Level Miami Center
09:18AM 27.7192 -83.5992 293° West 376 433 43,000  Level Miami Center
09:19AM 27.7578 -83.7092 292° West 376 433 43,000  Level Miami Center
09:20AM 27.7964 -83.8147 292° West 376 433 43,000  Level Miami Center
09:21AM 27.8350 -83.9228 292° West 376 433 43,000  Level Miami Center
09:24AM 27.9386 -84.2103 292° West 380 437 43,000  Level Jacksonville Center
09:25AM 27.9750 -84.3189 291° West 375 432 43,000  Level Jacksonville Center
09:26AM 28.0156 -84.4278 293° West 375 432 43,000  Level Jacksonville Center
09:27AM 28.0478 -84.5244 291° West 370 426 43,000  Level Jacksonville Center
09:28AM 28.0881 -84.6333 293° West 378 435 43,000  Level Jacksonville Center
09:29AM 28.1261 -84.7422 292° West 373 429 43,000  Level Jacksonville Center
09:30AM 28.1642 -84.8514 292° West 373 429 43,000  Level Jacksonville Center
09:31AM 28.2022 -84.9628 291° West 378 435 43,000  Level Jacksonville Center
09:32AM 28.2419 -85.0719 292° West 378 435 43,000  Level Jacksonville Center
09:33AM 28.2797 -85.1811 291° West 378 435 43,000  Level Jacksonville Center
09:34AM 28.3194 -85.2906 292° West 369 425 43,000  Level Jacksonville Center
09:35AM 28.3572 -85.4000 291° West 374 430 43,000  Level Jacksonville Center
09:36AM 28.3944 -85.5094 291° West 374 430 43,000  Level Jacksonville Center
09:37AM 28.4319 -85.6189 291° West 374 430 43,000  Level Jacksonville Center
09:38AM 28.4692 -85.7308 291° West 374 430 43,000  Level Jacksonville Center
09:39AM 28.5086 -85.8383 293° West 374 430 43,000  Level Jacksonville Center
09:40AM 28.5456 -85.9506 291° West 374 430 43,000  Level Jacksonville Center
09:41AM 28.5825 -86.0603 291° West 374 430 43,000  Level Jacksonville Center
09:42AM 28.6194 -86.1681 291° West 374 430 43,000  Level Jacksonville Center
09:43AM 28.6583 -86.2781 292° West 376 433 43,000  Level Jacksonville Center
09:44AM 28.6950 -86.3881 291° West 376 433 43,000  Level Jacksonville Center
09:45AM 28.7336 -86.5006 291° West 376 433 43,000  Level Jacksonville Center
09:47AM 28.8064 -86.7214 291° West 371 427 43,000  Level Jacksonville Center
09:48AM 28.8469 -86.8342 292° West 377 434 43,000  Level Jacksonville Center
09:49AM 28.8831 -86.9447 290° West 371 427 43,000  Level Jacksonville Center
09:50AM 28.9192 -87.0528 291° West 371 427 43,000  Level Jacksonville Center
09:51AM 28.9533 -87.1633 289° West 378 435 43,000  Level Jacksonville Center
09:52AM 28.9911 -87.2767 291° West 373 429 43,000  Level Jacksonville Center
09:53AM 29.0486 -87.4492 291° West 374 430 43,000  Level Houston Center
09:54AM 29.0861 -87.5603 291° West 375 432 43,000  Level Houston Center
09:55AM 29.1206 -87.6725 289° West 375 432 43,000  Level Houston Center
09:56AM 29.1581 -87.7842 291° West 376 433 43,000  Level Houston Center
09:57AM 29.1936 -87.8967 290° West 376 433 43,000  Level Houston Center
09:58AM 29.2300 -88.0092 290° West 378 435 43,000  Level Houston Center
09:59AM 29.2681 -88.1294 290° West 375 432 43,000  Level Houston Center
10:00AM 29.3153 -88.2389 296° West 382 440 43,000  Level Houston Center
10:01AM 29.3708 -88.3614 298° West 381 438 43,000  Level Houston Center
10:02AM 29.4214 -88.4756 297° West 379 436 43,000  Level Houston Center
10:03AM 29.4708 -88.5833 298° West 381 438 43,000  Level Houston Center
10:04AM 29.5178 -88.6917 296° West 380 437 43,000  Level Houston Center
10:06AM 29.5661 -88.8006 297° West 382 440 43,000  Level Houston Center
10:07AM 29.6136 -88.9078 297° West 379 436 43,000  Level Houston Center
10:08AM 29.6619 -89.0158 297° West 379 436 43,000  Level Houston Center
10:09AM 29.7192 -89.1450 297° West 379 436 43,000 -60 Level Houston Center
10:10AM 29.7664 -89.2542 297° West 380 437 42,900  Descending Houston Center
10:11AM 29.8142 -89.3631 297° West 380 437 43,000  Climbing Houston Center
10:12AM 29.8617 -89.4708 297° West 378 435 43,000 -60 Level Houston Center
10:13AM 29.9086 -89.5797 296° West 377 434 42,900  Descending Houston Center
10:14AM 29.9561 -89.6889 297° West 379 436 43,000  Climbing Houston Center
10:15AM 30.0031 -89.7983 296° West 377 434 43,000  Level Houston Center
10:16AM 30.0500 -89.9067 297° West 377 434 43,000  Level Houston Center
10:17AM 30.1064 -90.0381 296° West 378 435 43,000  Level Houston Center
10:18AM 30.1553 -90.1483 297° West 382 440 43,000  Level Houston Center
10:24AM 30.4349 -90.8023 297° West 370 426 43,000  Level FlightAware ADS-B
10:29AM 30.6503 -91.3160 296° West 370 426 43,000  Level FlightAware ADS-B
10:29AM 30.6667 -91.3503 296° West 370 426 43,000  Level Houston Center
10:30AM 30.7108 -91.4597 295° West 369 425 43,000  Level Houston Center
10:31AM 30.7639 -91.5892 296° West 370 426 43,000  Level Houston Center
10:37AM 31.0157 -92.2026 296° West 43,000  Level FlightAware ADS-B
10:37AM 31.0182 -92.2088 295° West 370 426 43,000  Level FlightAware ADS-B
10:38AM 31.0486 -92.2836 295° West 370 426 43,000  Level FlightAware ADS-B
10:39AM 31.0747 -92.3481 295° West 368 423 43,000  Level Houston Center
10:45AM 31.3453 -93.0228 295° West 367 422 43,000  Level FlightAware ADS-B
10:46AM 31.3927 -93.1420 295° West 366 421 43,000  Level FlightAware ADS-B
10:46AM 31.4247 -93.2229 295° West 364 419 43,000  Level FlightAware ADS-B
10:49AM 31.5389 -93.5135 295° West 366 421 43,000  Level FlightAware ADS-B
10:50AM 31.5629 -93.5747 295° West 366 421 43,000  Level FlightAware ADS-B
10:50AM 31.5877 -93.6381 295° West 366 421 43,000  Level FlightAware ADS-B
10:51AM 31.6093 -93.6933 295° West 366 421 43,000  Level FlightAware ADS-B
10:51AM 31.6311 -93.7493 295° West 367 422 43,000  Level FlightAware ADS-B
10:52AM 31.6732 -93.8575 295° West 368 423 43,000  Level FlightAware ADS-B
10:53AM 31.6944 -93.9119 295° West 368 423 43,000  Level FlightAware ADS-B
10:53AM 31.7195 -93.9765 295° West 367 422 43,000  Level FlightAware ADS-B
10:54AM 31.7406 -94.0309 295° West 367 422 43,000  Level FlightAware ADS-B
10:55AM 31.7654 -94.0946 295° West 367 422 43,000  Level FlightAware ADS-B
10:56AM 31.8147 -94.2227 294° West 367 422 43,000  Level FlightAware ADS-B
10:56AM 31.8357 -94.2774 294° West 366 421 43,000  Level FlightAware ADS-B
10:57AM 31.8565 -94.3317 294° West 366 421 43,000  Level FlightAware ADS-B
10:57AM 31.8778 -94.3875 294° West 366 421 43,000  Level FlightAware ADS-B
10:58AM 31.8993 -94.4435 294° West 365 420 43,000  Level FlightAware ADS-B
10:58AM 31.9201 -94.4980 294° West 364 419 43,000  Level FlightAware ADS-B
10:59AM 31.9408 -94.5525 294° West 365 420 43,000  Level FlightAware ADS-B
10:59AM 31.9619 -94.6078 294° West 364 419 43,000  Level FlightAware ADS-B
11:00AM 31.9868 -94.6737 294° West 364 419 43,000  Level FlightAware ADS-B
11:00AM 32.0083 -94.7302 294° West 364 419 43,000  Level FlightAware ADS-B
11:01AM 32.0392 -94.8117 294° West 365 420 43,000  Level FlightAware ADS-B
11:02AM 32.0622 -94.8725 294° West 365 420 43,000  Level FlightAware ADS-B
11:02AM 32.0929 -94.9543 294° West 365 420 43,000  Level FlightAware ADS-B
11:03AM 32.1142 -95.0111 294° West 366 421 43,000  Level FlightAware ADS-B
11:03AM 32.1353 -95.0673 294° West 366 421 43,000  Level FlightAware ADS-B
11:04AM 32.1562 -95.1232 294° West 367 422 43,000  Level FlightAware ADS-B
11:05AM 32.1783 -95.1820 294° West 367 422 43,000  Level FlightAware ADS-B
11:05AM 32.1999 -95.2399 294° West 367 422 43,000  Level FlightAware ADS-B
11:06AM 32.2204 -95.2949 294° West 368 423 43,000  Level FlightAware ADS-B
11:06AM 32.2433 -95.3501 296° West 371 427 43,000  Level FlightAware ADS-B
11:07AM 32.2673 -95.4071 296° West 373 429 43,000  Level FlightAware ADS-B
11:08AM 32.3424 -95.5864 296° West 378 435 43,000  Level FlightAware ADS-B
11:10AM 32.4118 -95.7526 296° West 379 436 43,000  Level FlightAware ADS-B
11:12AM 32.5321 -96.0427 296° West 384 442 43,000  Level FlightAware ADS-B
11:13AM 32.5830 -96.1662 296° West 384 442 43,000  Level FlightAware ADS-B
11:14AM 32.6250 -96.2682 296° West 386 444 43,000  Level FlightAware ADS-B
11:15AM 32.6491 -96.3271 296° West 386 444 43,000  Level FlightAware ADS-B
11:15AM 32.6732 -96.3861 296° West 386 444 43,000  Level FlightAware ADS-B
11:16AM 32.7030 -96.4586 296° West 385 443 43,000  Level FlightAware ADS-B
11:16AM 32.7089 -96.4730 296° West 385 443 43,000  Level FlightAware ADS-B (KAFW)
11:17AM 32.7317 -96.5292 296° West 384 442 43,000  Level FlightAware ADS-B
11:17AM 32.7376 -96.5436 296° West 384 442 43,000  Level FlightAware ADS-B (KAFW)
11:17AM 32.7660 -96.6138 296° West 384 442 43,000  Level FlightAware ADS-B (KAFW)
11:18AM 32.8087 -96.7191 296° West 386 444 43,000  Level FlightAware ADS-B
11:19AM 32.8558 -96.8357 296° West 386 444 43,000  Level FlightAware ADS-B (KAFW)
11:20AM 32.8754 -96.8844 296° West 387 445 43,000  Level FlightAware ADS-B
11:20AM 32.8947 -96.9323 296° West 386 444 43,000  Level FlightAware ADS-B (KAFW)
11:21AM 32.9157 -96.9847 296° West 385 443 43,000  Level FlightAware ADS-B (KAFW)
11:22AM 32.9784 -97.1408 296° West 386 444 43,000  Level FlightAware ADS-B (KAFW)
11:23AM 33.0391 -97.2932 295° West 390 449 43,000  Level FlightAware ADS-B (KAFW)
11:24AM 33.0643 -97.3566 295° West 391 450 43,000  Level FlightAware ADS-B (KAFW)
11:24AM 33.0957 -97.4358 295° West 393 452 43,000  Level FlightAware ADS-B (KAFW)
11:26AM 33.1427 -97.5545 295° West 396 456 43,000  Level FlightAware ADS-B (KAFW)
11:29AM 33.3195 -98.0047 295° West 406 467 43,000  Level FlightAware ADS-B (KAFW)
11:30AM 33.3514 -98.0825 295° West 400 460 43,000  Level Fort Worth Center
11:31AM 33.3986 -98.2122 294° West 394 453 43,000  Level Fort Worth Center
11:32AM 33.4458 -98.3322 295° West 399 459 43,000  Level Fort Worth Center
11:33AM 33.4886 -98.4422 295° West 399 459 43,000  Level Fort Worth Center
11:34AM 33.5419 -98.5725 296° West 399 459 43,000  Level Fort Worth Center
11:35AM 33.5886 -98.6878 296° West 409 471 43,000  Level Fort Worth Center
11:36AM 33.6311 -98.8131 292° West 415 478 43,000  Level Fort Worth Center
11:37AM 33.6819 -98.9311 297° West 415 478 43,000  Level Fort Worth Center
11:38AM 33.7242 -99.0542 292° West 410 472 43,000  Level Fort Worth Center
11:39AM 33.7767 -99.1903 295° West 404 465 43,000  Level Fort Worth Center
11:40AM 33.8250 -99.3186 294° West 404 465 43,000  Level Fort Worth Center
11:41AM 33.8708 -99.4422 294° West 409 471 43,000  Level Fort Worth Center
11:42AM 33.9167 -99.5711 293° West 414 476 43,000  Level Fort Worth Center
11:43AM 33.9647 -99.6922 296° West 419 482 43,000  Level Fort Worth Center
11:44AM 34.0122 -99.8239 294° West 419 482 43,000  Level Fort Worth Center
11:45AM 34.0597 -99.9531 294° West 419 482 43,000  Level Fort Worth Center
11:47AM 34.1647 -100.2436 294° West 418 481 43,000  Level Albuquerque Center
11:48AM 34.2119 -100.3725 294° West 419 482 43,000  Level Albuquerque Center
11:49AM 34.2692 -100.5289 294° West 423 487 43,000  Level Albuquerque Center
11:50AM 34.3167 -100.6608 294° West 427 491 43,000  Level Albuquerque Center
11:51AM 34.3647 -100.7928 294° West 428 493 43,000  Level Albuquerque Center
11:52AM 34.4114 -100.9244 293° West 428 493 43,000  Level Albuquerque Center
11:54AM 34.4581 -101.0589 293° West 430 495 43,000  Level Albuquerque Center
11:55AM 34.5061 -101.1922 294° West 431 496 43,000  Level Albuquerque Center
11:56AM 34.5536 -101.3256 293° West 431 496 43,000  Level Albuquerque Center
11:57AM 34.6097 -101.4864 293° West 430 495 43,000  Level Albuquerque Center
11:58AM 34.6564 -101.6203 293° West 430 495 43,000  Level Albuquerque Center
11:59AM 34.7025 -101.7542 293° West 430 495 43,000  Level Albuquerque Center
12:00PM 34.7489 -101.8878 293° West 428 493 43,000  Level Albuquerque Center
12:01PM 34.7947 -102.0219 293° West 427 491 43,000  Level Albuquerque Center
12:02PM 34.8411 -102.1556 293° West 427 491 43,000  Level Albuquerque Center
12:03PM 34.8881 -102.2894 293° West 428 493 43,000  Level Albuquerque Center
12:04PM 34.9333 -102.4239 292° West 429 494 43,000  Level Albuquerque Center
12:05PM 34.9881 -102.5864 292° West 430 495 43,000  Level Albuquerque Center
12:06PM 35.0336 -102.7203 293° West 429 494 43,000  Level Albuquerque Center
12:07PM 35.0789 -102.8544 292° West 428 493 43,000  Level Albuquerque Center
12:08PM 35.1250 -102.9875 293° West 429 494 43,000  Level Albuquerque Center
12:09PM 35.1706 -103.1236 292° West 431 496 43,000  Level Albuquerque Center
12:10PM 35.2158 -103.2611 292° West 431 496 43,000  Level Albuquerque Center
12:11PM 35.2686 -103.4197 292° West 429 494 43,000  Level Albuquerque Center
12:12PM 35.3139 -103.5550 292° West 427 491 43,000  Level Albuquerque Center
12:13PM 35.3578 -103.6911 292° West 428 493 43,000  Level Albuquerque Center
12:14PM 35.4014 -103.8272 291° West 428 493 43,000  Level Albuquerque Center
12:15PM 35.4458 -103.9614 292° West 426 490 43,000  Level Albuquerque Center
12:16PM 35.4892 -104.0975 291° West 428 493 43,000  Level Albuquerque Center
12:17PM 35.5406 -104.2567 292° West 430 495 43,000  Level Albuquerque Center
12:18PM 35.5828 -104.3947 291° West 432 497 43,000  Level Albuquerque Center
12:19PM 35.6264 -104.5297 292° West 427 491 43,000  Level Albuquerque Center
12:20PM 35.6689 -104.6664 291° West 425 489 43,000  Level Albuquerque Center
12:21PM 35.7117 -104.8033 291° West 426 490 43,000  Level Albuquerque Center
12:22PM 35.7558 -104.9392 292° West 426 490 43,000  Level Albuquerque Center
12:23PM 35.8033 -105.0981 290° West 423 487 43,000  Level Albuquerque Center
12:24PM 35.8469 -105.2342 292° West 424 488 43,000  Level Albuquerque Center
12:26PM 35.8883 -105.3686 291° West 420 483 43,000  Level Albuquerque Center
12:27PM 35.9311 -105.5044 291° West 419 482 43,000  Level Albuquerque Center
12:28PM 35.9761 -105.6514 291° West 420 483 43,000  Level Albuquerque Center
12:29PM 36.0172 -105.7864 291° West 421 484 43,000  Level Albuquerque Center
12:30PM 36.0583 -105.9208 291° West 422 486 43,000  Level Albuquerque Center
12:31PM 36.0989 -106.0558 290° West 422 486 43,000  Level Albuquerque Center
12:32PM 36.1394 -106.1914 290° West 422 486 43,000  Level Albuquerque Center
12:33PM 36.1881 -106.3519 291° West 419 482 43,000  Level Albuquerque Center
12:34PM 36.2289 -106.4875 291° West 420 483 43,000  Level Albuquerque Center
12:35PM 36.2681 -106.6242 290° West 419 482 43,000  Level Albuquerque Center
12:36PM 36.3061 -106.7542 290° West 420 483 43,000  Level Albuquerque Center
12:38PM 36.4011 -107.0789 290° West 420 483 43,000  Level Denver Center
12:39PM 36.4406 -107.2103 290° West 423 487 43,000  Level Denver Center
12:40PM 36.4778 -107.3397 290° West 419 482 43,000  Level Denver Center
12:41PM 36.5183 -107.4911 288° West 415 478 43,000  Level Denver Center
12:42PM 36.5569 -107.6211 290° West 417 480 43,000  Level Denver Center
12:43PM 36.5989 -107.7722 289° West 416 479 43,000  Level Denver Center
12:44PM 36.6356 -107.9017 289° West 417 480 43,000  Level Denver Center
12:50PM 36.8680 -108.7385 289° West 420 483 43,000  Level FlightAware ADS-B (KMTJ)
12:54PM 36.9926 -109.1980 289° West 420 483 43,000  Level FlightAware ADS-B (KMTJ)
12:54PM 37.0155 -109.2829 289° West 420 483 43,000  Level FlightAware ADS-B (KMTJ)
12:59PM 37.1864 -109.9310 288° West 423 487 43,000  Level FlightAware ADS-B (KMTJ)
12:59PM 37.2043 -109.9998 288° West 423 487 43,000  Level FlightAware ADS-B (KMTJ)
01:00PM 37.2292 -110.0960 288° West 422 486 43,000  Level FlightAware ADS-B (KMTJ)
01:02PM 37.2873 -110.3207 288° West 417 480 43,000  Level FlightAware ADS-B (KMTJ)
01:02PM 37.3096 -110.4076 288° West 416 479 43,000  Level FlightAware ADS-B (KMTJ)
01:03PM 37.3273 -110.4769 288° West 416 479 43,000  Level FlightAware ADS-B (KMTJ)
01:04PM 37.3603 -110.6061 288° West 413 475 43,000  Level Denver Center
01:10PM 37.5631 -111.4172 288° West 416 479 43,000  Level FlightAware ADS-B (KMTJ)
01:11PM 37.5948 -111.5465 287° West 416 479 43,000  Level FlightAware ADS-B (KMTJ)
01:12PM 37.6263 -111.6760 287° West 417 480 43,000  Level FlightAware ADS-B (KMTJ)
01:13PM 37.6601 -111.8154 287° West 416 479 43,000  Level FlightAware ADS-B (KBTF)
01:15PM 37.7300 -112.1062 287° West 414 476 43,000  Level FlightAware ADS-B (KBTF)
01:15PM 37.7527 -112.2011 287° West 416 479 43,000  Level FlightAware ADS-B (KBTF)
01:16PM 37.7923 -112.3683 287° West 415 478 43,000  Level FlightAware ADS-B (KBTF)
01:18PM 37.8332 -112.5423 287° West 421 484 43,000  Level FlightAware ADS-B (KBTF)
01:19PM 37.8738 -112.7158 287° West 419 482 43,000  Level FlightAware ADS-B (KBTF)
01:20PM 37.9081 -112.8632 286° West 420 483 43,000  Level FlightAware ADS-B (KBTF)
01:20PM 37.9239 -112.9318 286° West 420 483 43,000  Level FlightAware ADS-B (KBTF)
01:22PM 37.9595 -113.0871 286° West 420 483 43,000  Level FlightAware ADS-B (KBTF)
01:23PM 37.9828 -113.1893 286° West 420 483 43,000  Level FlightAware ADS-B (KPVU)
01:24PM 38.0177 -113.3426 286° West 419 482 43,000  Level FlightAware ADS-B (KPVU)
01:26PM 38.0884 -113.6562 286° West 417 480 43,000  Level FlightAware ADS-B (KPVU)
01:26PM 38.1086 -113.7462 286° West 417 480 43,000  Level FlightAware ADS-B (KPVU)
01:27PM 38.1384 -113.8804 286° West 415 478 43,000  Level FlightAware ADS-B (KPVU)
01:28PM 38.1603 -113.9796 286° West 415 478 43,000  Level FlightAware ADS-B (KPVU)
01:29PM 38.1851 -114.0930 286° West 414 476 43,000  Level FlightAware ADS-B (KPVU)
01:29PM 38.2060 -114.1579 292° West 414 476 43,000  Level FlightAware ADS-B (KPVU)
01:30PM 38.2229 -114.1936 301° West 414 476 43,000  Level FlightAware ADS-B (KPVU)
01:31PM 38.2852 -114.3223 302° West 416 479 43,000  Level FlightAware ADS-B (KPVU)
01:31PM 38.3160 -114.3867 301° West 417 480 43,000  Level FlightAware ADS-B (KPVU)
01:32PM 38.3653 -114.4899 301° West 418 481 43,000  Level FlightAware ADS-B (KPVU)
01:33PM 38.4292 -114.6200 301° West 418 481 43,000  Level Salt Lake Center
01:34PM 38.4897 -114.7464 302° West 418 481 43,000  Level Salt Lake Center
01:35PM 38.5514 -114.8714 302° West 417 480 43,000  Level Salt Lake Center
01:36PM 38.6097 -114.9997 300° West 419 482 43,000  Level Salt Lake Center
01:37PM 38.6161 -115.1453 273° West 412 474 43,000  Level Salt Lake Center
01:38PM 38.5856 -115.2886 255° West 417 480 43,000  Level Salt Lake Center
01:39PM 38.5528 -115.4403 255° West 419 482 43,000  Level Salt Lake Center
01:40PM 38.5208 -115.5806 254° West 413 475 43,000  Level Salt Lake Center
01:41PM 38.4817 -115.7517 254° West 417 480 43,000  Level Salt Lake Center
01:42PM 38.4500 -115.8922 254° West 414 476 43,000  Level Salt Lake Center
01:43PM 38.4172 -116.0353 254° West 419 482 43,000  Level Salt Lake Center
01:44PM 38.3842 -116.1778 254° West 418 481 43,000  Level Salt Lake Center
01:45PM 38.3511 -116.3189 253° West 418 481 43,000  Level Salt Lake Center
01:47PM 38.3119 -116.4872 254° West 416 479 43,000  Level Oakland Center
01:48PM 38.2789 -116.6294 254° West 419 482 43,000  Level Oakland Center
01:48PM 38.2450 -116.7714 253° West 419 482 43,000  Level Salt Lake Center
01:49PM 38.2114 -116.9119 253° West 416 479 43,000  Level Salt Lake Center
01:51PM 38.1881 -117.0531 258° West 413 475 43,000  Level Salt Lake Center
01:52PM 38.1706 -117.1969 261° West 411 473 43,000  Level Salt Lake Center
01:53PM 38.1481 -117.3633 260° West 416 479 43,000  Level Salt Lake Center
01:54PM 38.1294 -117.5067 261° West 414 476 43,000  Level Oakland Center
01:55PM 38.1106 -117.6506 261° West 414 476 43,000  Level Oakland Center
01:56PM 38.0917 -117.7944 261° West 413 475 43,000  Level Oakland Center
01:57PM 38.0603 -118.0233 260° West 414 476 43,000  Level Oakland Center
01:58PM 38.0375 -118.1953 261° West 412 474 43,000  Level Oakland Center
01:59PM 38.0172 -118.3392 260° West 414 476 43,000  Level Oakland Center
02:00PM 37.9983 -118.4800 260° West 406 467 43,000  Level Oakland Center
02:01PM 37.9789 -118.6231 260° West 411 473 43,000  Level Oakland Center
02:02PM 37.9589 -118.7639 260° West 407 468 43,000  Level Oakland Center
02:03PM 37.9383 -118.9053 260° West 408 470 43,000  Level Oakland Center
02:04PM 37.9186 -119.0464 260° West 407 468 43,000  Level Oakland Center
02:05PM 37.8992 -119.1792 260° West 405 466 43,000 -720 Level Oakland Center
02:07PM 37.8744 -119.3497 260° West 411 473 41,600 -1,500 Descending Oakland Center
02:08PM 37.8531 -119.4925 259° West 413 475 40,000 -1,620 Descending Oakland Center
02:09PM 37.8308 -119.6386 259° West 421 484 38,300 -1,680 Descending Oakland Center
02:10PM 37.8086 -119.7850 259° West 422 486 36,600 -1,560 Descending Oakland Center
02:11PM 37.7869 -119.9267 259° West 412 474 35,200 -1,740 Descending Oakland Center
02:12PM 37.7661 -120.0714 260° West 417 480 33,100 -2,040 Descending Oakland Center
02:13PM 37.7442 -120.2200 259° West 427 491 31,100 -1,980 Descending Oakland Center
02:14PM 37.7197 -120.3731 259° West 440 506 29,100 -1,980 Descending Oakland Center
02:15PM 37.6978 -120.5133 259° West 414 476 27,100 -1,860 Descending Oakland Center
02:16PM 37.6767 -120.6433 258° West 385 443 25,300 -1,860 Descending Oakland Center
02:21PM 37.5852 -121.3340 258° West 334 384 15,100 -1,860 Descending FlightAware ADS-B
02:22PM 37.5785 -121.3920 262° West 331 381 14,200 -1,800 Descending FlightAware ADS-B
02:22PM 37.5717 -121.4510 262° West 330 380 13,300 -1,740 Descending FlightAware ADS-B
02:23PM 37.5646 -121.5110 262° West 328 377 12,400 -1,680 Descending FlightAware ADS-B
02:23PM 37.5580 -121.5680 262° West 325 374 11,600 -1,560 Descending FlightAware ADS-B
02:24PM 37.5517 -121.6190 261° West 316 364 10,900 -1,560 Descending FlightAware ADS-B
02:24PM 37.5507 -121.6240 256° West 310 357 10,800 -540 Descending FlightAware ADS-B
02:24PM 37.5376 -121.6800 254° West 290 334 10,600 -840 Descending FlightAware ADS-B
02:25PM 37.5275 -121.7230 254° West 284 327 10,000 -1,440 Descending FlightAware ADS-B
02:25PM 37.5214 -121.7490 254° West 285 328 9,600 -1,260 Descending FlightAware ADS-B
02:25PM 37.5147 -121.7770 253° West 284 327 9,300 -1,260 Descending FlightAware ADS-B
02:26PM 37.5087 -121.8020 253° West 281 323 8,900 -1,560 Descending FlightAware ADS-B
02:26PM 37.5032 -121.8250 253° West 272 313 8,500 -1,200 Descending FlightAware ADS-B
02:26PM 37.4957 -121.8560 253° West 259 298 8,200 -840 Descending FlightAware ADS-B
02:27PM 37.4902 -121.8800 254° West 243 280 8,000 -600 Descending FlightAware ADS-B
02:27PM 37.4853 -121.9000 253° West 240 276 7,900 -600 Descending FlightAware ADS-B
02:27PM 37.4831 -121.9090 253° West 236 272 7,800 -600 Descending FlightAware ADS-B
02:27PM 37.4821 -121.9150 258° West 236 272 7,800 -780 Level FlightAware ADS-B
02:27PM 37.4814 -121.9200 260° West 238 274 7,700 -1,380 Descending FlightAware ADS-B
02:27PM 37.4810 -121.9270 266° West 240 276 7,600 -720 Descending FlightAware ADS-B
02:27PM 37.4812 -121.9320 273° West 242 278 7,600 -780 Level FlightAware ADS-B
02:27PM 37.4817 -121.9390 275° West 245 282 7,500 -1,500 Descending FlightAware ADS-B
02:27PM 37.4826 -121.9450 281° West 247 284 7,400 -1,380 Descending FlightAware ADS-B
02:27PM 37.4840 -121.9510 286° West 251 289 7,300 -1,680 Descending FlightAware ADS-B
02:27PM 37.4865 -121.9590 291° West 254 292 7,100 -1,380 Descending FlightAware ADS-B
02:28PM 37.4938 -121.9810 293° West 252 290 6,800 -1,140 Descending FlightAware ADS-B
02:28PM 37.5005 -122.0020 292° West 246 283 6,500 -960 Descending FlightAware ADS-B
02:28PM 37.5097 -122.0310 292° West 245 282 6,200 -1,020 Descending FlightAware ADS-B
02:29PM 37.5156 -122.0490 292° West 225 259 5,900 -780 Descending FlightAware ADS-B
02:29PM 37.5215 -122.0680 291° West 205 236 5,800 -240 Descending FlightAware ADS-B
02:29PM 37.5257 -122.0810 292° West 187 215 5,800 -720 Level FlightAware ADS-B
02:29PM 37.5303 -122.0950 293° West 186 214 5,500 -1,620 Descending FlightAware ADS-B
02:30PM 37.5391 -122.1240 291° West 193 222 4,700 -1,560 Descending FlightAware ADS-B
02:30PM 37.5441 -122.1400 292° West 193 222 4,400 -1,200 Descending FlightAware ADS-B
02:30PM 37.5490 -122.1550 292° West 188 216 4,100 -1,020 Descending FlightAware ADS-B
02:31PM 37.5537 -122.1700 292° West 186 214 3,900 -1,020 Descending FlightAware ADS-B
02:31PM 37.5586 -122.1860 291° West 193 222 3,600 -1,440 Descending FlightAware ADS-B
02:31PM 37.5638 -122.2020 292° West 198 228 3,200 -1,440 Descending FlightAware ADS-B
02:31PM 37.5702 -122.2220 292° West 194 223 2,800 -1,320 Descending FlightAware ADS-B
02:32PM 37.5747 -122.2370 291° West 190 219 2,500 -1,320 Descending FlightAware ADS-B
02:32PM 37.5760 -122.2420 288° West 190 219 2,400 -1,500 Descending FlightAware ADS-B
02:32PM 37.5777 -122.2490 287° West 189 217 2,200 -1,440 Descending FlightAware ADS-B
02:32PM 37.5793 -122.2560 286° West 187 215 2,100 -1,200 Descending FlightAware ADS-B
02:32PM 37.5835 -122.2710 289° West 170 196 1,800 -1,020 Descending FlightAware ADS-B
02:32PM 37.5873 -122.2840 290° West 150 173 1,600 -1,020 Descending FlightAware ADS-B
02:33PM 37.5915 -122.3000 288° West 140 161 1,200 -1,140 Descending FlightAware ADS-B
02:33PM 37.5951 -122.3130 289° West 133 153 900 -1,080 Descending FlightAware ADS-B
02:33PM 37.5993 -122.3240 296° West 124 143 600 -960 Descending FlightAware ADS-B
02:34PM 37.6035 -122.3340 298° West 124 143 400 -780 Descending FlightAware ADS-B
02:34PM 37.6078 -122.3440 298° West 125 144 200 -780 Descending FlightAware ADS-B
02:42PM 37.6167 -122.3667 322° Northwest  Level FlightAware Approximate
02:43PM 37.6191 -122.3752 322° Northwest  Level Estimated